Terminal Aerodrome Forecast
Issued by NWS Bismarck, ND

Home | Current Version | Previous Version | Graphics & Text | Print | Product List | Glossary On
Versions: 1 2 3 4 5 6 7 8 9 10 11 12 13 14 15 16 17
000
FTUS43 KBIS 161600 AAA
TAFBIS
TAF AMD
KBIS 161619Z 1616/1712 06015G22KT P6SM OVC015
      TEMPO 1616/1618 6SM -SHSN
     FM161800 04017G23KT P6SM BKN035
     FM170000 06013KT P6SM BKN035
     FM170800 09010KT 6SM BR BKN020=

USA.gov is the U.S. government's official web portal to all federal, state and local government web resources and services.